Time;durP1;ratioP1;P1;durP2;ratioP2;P2;SDS_P1;SDS_P2;PMS_P1;PMS_P2;Temp;Humidity;BMP_temperature;BMP_pressure;BME280_temperature;BME280_humidity;BME280_pressure;Samples;Min_cycle;Max_cycle;Signal;HPM_P1;HPM_P2
2022/07/03 00:02:28;;;;;;;12.35;5.30;;;;;;;;;;5322984;27;20023;-70
2022/07/03 00:04:59;;;;;;;6.40;4.85;;;;;;;;;;5324241;28;20015;-70
2022/07/03 00:07:30;;;;;;;11.65;4.90;;;;;;;;;;5324191;28;20272;-70
2022/07/03 00:10:02;;;;;;;13.15;4.65;;;;;;;;;;5323322;28;20072;-71
2022/07/03 00:12:33;;;;;;;9.73;4.00;;;;;;;;;;5323823;28;20019;-71
2022/07/03 00:15:05;;;;;;;4.97;2.92;;;;;;;;;;5323711;28;20115;-70
2022/07/03 00:17:36;;;;;;;4.15;2.83;;;;;;;;;;5322909;28;20034;-70
2022/07/03 00:20:07;;;;;;;7.33;1.90;;;;;;;;;;5323594;28;20123;-70
2022/07/03 00:22:42;;;;;;;4.13;1.48;;;;;;;;;;5323764;28;20265;-70
2022/07/03 00:25:13;;;;;;;3.08;1.23;;;;;;;;;;5322902;28;20037;-70
2022/07/03 00:27:48;;;;;;;3.88;1.20;;;;;;;;;;5323631;28;20458;-70
2022/07/03 00:30:20;;;;;;;3.53;1.40;;;;;;;;;;5322643;28;20069;-71
2022/07/03 00:32:52;;;;;;;4.70;1.10;;;;;;;;;;5323863;28;20060;-70
2022/07/03 00:35:24;;;;;;;4.93;1.60;;;;;;;;;;5323451;28;20375;-70
2022/07/03 00:37:55;;;;;;;6.32;1.60;;;;;;;;;;5323182;28;20080;-70
2022/07/03 00:40:26;;;;;;;4.82;1.50;;;;;;;;;;5323278;28;20450;-70
2022/07/03 00:42:59;;;;;;;7.10;2.08;;;;;;;;;;5323924;28;20808;-71
2022/07/03 00:45:34;;;;;;;3.65;1.50;;;;;;;;;;5322646;28;20019;-71
2022/07/03 00:48:06;;;;;;;2.60;1.40;;;;;;;;;;5327768;28;20061;-71
2022/07/03 00:50:43;;;;;;;3.75;1.58;;;;;;;;;;5327890;27;20130;-71
2022/07/03 00:53:27;;;;;;;4.35;1.42;;;;;;;;;;5327307;28;20027;-71
2022/07/03 00:55:59;;;;;;;4.32;1.95;;;;;;;;;;5328203;28;20023;-70
2022/07/03 00:58:33;;;;;;;3.15;1.52;;;;;;;;;;5326699;28;20023;-71
2022/07/03 01:01:05;;;;;;;8.75;2.15;;;;;;;;;;5327564;28;20020;-70
2022/07/03 01:03:38;;;;;;;2.60;1.70;;;;;;;;;;5327595;28;20022;-70
2022/07/03 01:06:11;;;;;;;4.28;1.35;;;;;;;;;;5326803;28;20019;-71
2022/07/03 01:08:45;;;;;;;3.65;1.80;;;;;;;;;;5327352;28;20016;-70
2022/07/03 01:11:33;;;;;;;6.10;1.73;;;;;;;;;;5327322;28;20478;-71
2022/07/03 01:14:07;;;;;;;6.03;1.30;;;;;;;;;;5326686;28;20027;-71
2022/07/03 01:16:55;;;;;;;5.13;1.58;;;;;;;;;;5327384;28;20189;-71
2022/07/03 01:19:32;;;;;;;5.78;1.52;;;;;;;;;;5326016;28;20067;-71
2022/07/03 01:22:09;;;;;;;5.07;1.85;;;;;;;;;;5327020;28;20034;-71
2022/07/03 01:24:49;;;;;;;3.63;1.33;;;;;;;;;;5327265;28;20016;-72
2022/07/03 01:27:26;;;;;;;3.85;1.85;;;;;;;;;;5326154;28;20070;-71
2022/07/03 01:30:08;;;;;;;3.92;1.98;;;;;;;;;;5327482;28;20381;-71
2022/07/03 01:32:43;;;;;;;4.28;2.17;;;;;;;;;;5327120;28;20023;-70
2022/07/03 01:35:20;;;;;;;6.43;2.67;;;;;;;;;;5326021;28;20061;-71
2022/07/03 01:37:52;;;;;;;7.00;3.67;;;;;;;;;;5327401;28;20020;-70
2022/07/03 01:40:24;;;;;;;7.88;2.50;;;;;;;;;;5326684;28;20088;-71
2022/07/03 01:42:56;;;;;;;6.00;3.10;;;;;;;;;;5326350;28;20090;-70
2022/07/03 01:45:30;;;;;;;6.85;3.55;;;;;;;;;;5326743;28;20103;-71
2022/07/03 01:48:02;;;;;;;3.90;2.70;;;;;;;;;;5325857;28;20015;-70
2022/07/03 01:50:33;;;;;;;5.85;3.00;;;;;;;;;;5326809;28;20024;-70
2022/07/03 01:53:06;;;;;;;5.38;3.22;;;;;;;;;;5326366;28;20060;-70
2022/07/03 01:55:38;;;;;;;5.50;3.15;;;;;;;;;;5326075;28;20098;-70
2022/07/03 01:58:10;;;;;;;4.22;3.08;;;;;;;;;;5325770;28;20462;-70
2022/07/03 02:00:56;;;;;;;3.95;2.92;;;;;;;;;;5326627;28;20027;-70
2022/07/03 02:03:28;;;;;;;10.80;4.50;;;;;;;;;;5325258;28;20130;-70
2022/07/03 02:06:00;;;;;;;4.82;3.83;;;;;;;;;;5326300;28;20020;-70
2022/07/03 02:08:49;;;;;;;9.23;4.25;;;;;;;;;;5326318;28;20024;-70
2022/07/03 02:11:22;;;;;;;5.72;3.80;;;;;;;;;;5325779;28;20039;-70
2022/07/03 02:13:53;;;;;;;5.40;3.50;;;;;;;;;;5326312;28;20036;-70
2022/07/03 02:16:26;;;;;;;8.90;3.58;;;;;;;;;;5324901;28;20022;-71
2022/07/03 02:19:01;;;;;;;7.05;3.30;;;;;;;;;;5326297;28;20317;-70
2022/07/03 02:21:33;;;;;;;5.63;4.07;;;;;;;;;;5326093;28;20402;-71
2022/07/03 02:24:07;;;;;;;5.13;3.38;;;;;;;;;;5325057;28;20023;-71
2022/07/03 02:26:40;;;;;;;6.63;3.78;;;;;;;;;;5325842;28;20593;-71
2022/07/03 02:29:20;;;;;;;8.60;3.60;;;;;;;;;;5326031;28;20020;-70
2022/07/03 02:31:57;;;;;;;3.90;3.33;;;;;;;;;;5325478;28;20016;-70
2022/07/03 02:34:29;;;;;;;8.57;3.15;;;;;;;;;;5325368;28;20479;-71
2022/07/03 02:37:09;;;;;;;5.82;3.30;;;;;;;;;;5324762;28;20058;-71
2022/07/03 02:39:57;;;;;;;3.97;3.40;;;;;;;;;;5325833;28;20490;-70
2022/07/03 02:42:47;;;;;;;7.40;3.47;;;;;;;;;;5325386;28;20043;-72
2022/07/03 02:45:19;;;;;;;4.68;3.28;;;;;;;;;;5324525;28;20031;-71
2022/07/03 02:48:05;;;;;;;5.82;3.53;;;;;;;;;;5325941;28;20024;-71
2022/07/03 02:50:37;;;;;;;3.47;2.58;;;;;;;;;;5325498;27;20045;-71
2022/07/03 02:53:28;;;;;;;4.07;2.75;;;;;;;;;;5324636;28;20061;-71
2022/07/03 02:56:07;;;;;;;7.28;3.28;;;;;;;;;;5324725;28;20039;-71
2022/07/03 02:58:45;;;;;;;7.30;3.30;;;;;;;;;;5324589;28;20061;-71
2022/07/03 03:01:35;;;;;;;5.18;2.85;;;;;;;;;;5325355;28;20386;-72
2022/07/03 03:04:09;;;;;;;3.80;2.50;;;;;;;;;;5325022;28;20024;-71
2022/07/03 03:06:42;;;;;;;5.60;3.05;;;;;;;;;;5324318;28;20026;-71
2022/07/03 03:09:15;;;;;;;4.10;3.03;;;;;;;;;;5324722;28;20016;-71
2022/07/03 03:11:47;;;;;;;4.75;2.97;;;;;;;;;;5324709;28;20098;-71
2022/07/03 03:14:20;;;;;;;4.25;2.78;;;;;;;;;;5324052;28;20153;-71
2022/07/03 03:16:52;;;;;;;3.40;2.95;;;;;;;;;;5325141;28;20016;-71
2022/07/03 03:19:23;;;;;;;4.97;3.63;;;;;;;;;;5323804;28;20054;-71
2022/07/03 03:21:57;;;;;;;5.28;2.47;;;;;;;;;;5325312;28;20023;-71
2022/07/03 03:24:28;;;;;;;7.22;3.70;;;;;;;;;;5309461;28;20048;-72
2022/07/03 03:27:00;;;;;;;4.32;2.80;;;;;;;;;;5301258;28;20480;-72
2022/07/03 03:29:31;;;;;;;5.80;2.45;;;;;;;;;;5312769;28;20016;-71
2022/07/03 03:32:03;;;;;;;5.40;2.55;;;;;;;;;;5323295;28;20030;-72
2022/07/03 03:34:34;;;;;;;3.55;2.97;;;;;;;;;;5322409;28;20470;-71
2022/07/03 03:37:05;;;;;;;7.40;2.45;;;;;;;;;;5323512;28;20011;-72
2022/07/03 03:39:37;;;;;;;7.27;3.20;;;;;;;;;;5323717;28;20030;-71
2022/07/03 03:42:08;;;;;;;3.90;2.22;;;;;;;;;;5323058;28;20486;-70
2022/07/03 03:44:39;;;;;;;3.30;2.60;;;;;;;;;;5323619;28;20080;-70
2022/07/03 03:47:11;;;;;;;4.07;2.47;;;;;;;;;;5322661;28;20023;-70
2022/07/03 03:49:42;;;;;;;3.53;1.98;;;;;;;;;;5323373;28;20358;-70
2022/07/03 03:52:13;;;;;;;5.53;2.05;;;;;;;;;;5323157;28;20015;-70
2022/07/03 03:54:44;;;;;;;2.38;2.00;;;;;;;;;;5322472;28;20055;-70
2022/07/03 03:57:20;;;;;;;2.67;1.90;;;;;;;;;;5323263;28;20102;-70
2022/07/03 03:59:51;;;;;;;5.03;2.20;;;;;;;;;;5323388;28;20016;-70
2022/07/03 04:02:22;;;;;;;5.18;2.03;;;;;;;;;;5322148;28;20455;-71
2022/07/03 04:04:54;;;;;;;4.30;2.10;;;;;;;;;;5323607;28;20038;-71
2022/07/03 04:07:25;;;;;;;7.57;2.20;;;;;;;;;;5322818;28;20019;-71
2022/07/03 04:09:56;;;;;;;3.45;1.90;;;;;;;;;;5322836;28;20019;-71
2022/07/03 04:12:27;;;;;;;5.67;2.20;;;;;;;;;;5322941;28;20023;-71
2022/07/03 04:14:58;;;;;;;3.33;1.57;;;;;;;;;;5322957;28;20301;-71
2022/07/03 04:17:30;;;;;;;5.07;2.08;;;;;;;;;;5322375;28;20728;-72
2022/07/03 04:20:01;;;;;;;2.95;1.77;;;;;;;;;;5322721;28;20052;-71
2022/07/03 04:22:32;;;;;;;2.50;1.57;;;;;;;;;;5322081;28;20019;-71
2022/07/03 04:25:03;;;;;;;4.00;1.50;;;;;;;;;;5322764;28;20301;-71
2022/07/03 04:27:34;;;;;;;3.55;1.83;;;;;;;;;;5322850;28;20268;-72
2022/07/03 04:30:10;;;;;;;4.67;1.80;;;;;;;;;;5322349;28;20026;-71
2022/07/03 04:32:41;;;;;;;2.65;1.95;;;;;;;;;;5322942;28;20361;-72
2022/07/03 04:35:12;;;;;;;4.65;2.08;;;;;;;;;;5323253;28;20114;-71
2022/07/03 04:37:44;;;;;;;3.45;2.13;;;;;;;;;;5322879;28;20016;-71
2022/07/03 04:40:15;;;;;;;3.33;2.10;;;;;;;;;;5323627;28;20372;-71
2022/07/03 04:42:46;;;;;;;2.90;2.10;;;;;;;;;;5323480;28;20023;-71
2022/07/03 04:45:17;;;;;;;5.40;2.30;;;;;;;;;;5322677;28;20807;-71
2022/07/03 04:47:48;;;;;;;4.35;2.40;;;;;;;;;;5323489;28;20787;-71
2022/07/03 04:50:20;;;;;;;4.07;1.90;;;;;;;;;;5323154;28;20084;-71
2022/07/03 04:52:51;;;;;;;3.65;2.00;;;;;;;;;;5322936;28;20368;-72
2022/07/03 04:55:22;;;;;;;3.78;1.80;;;;;;;;;;5323301;28;20085;-71
2022/07/03 04:57:53;;;;;;;3.67;1.87;;;;;;;;;;5323145;28;20031;-72
2022/07/03 05:00:24;;;;;;;3.63;2.13;;;;;;;;;;5322969;28;20276;-72
2022/07/03 05:02:55;;;;;;;4.13;1.63;;;;;;;;;;5323664;28;20284;-71
2022/07/03 05:05:27;;;;;;;6.30;1.83;;;;;;;;;;5322600;28;20024;-71
2022/07/03 05:07:58;;;;;;;1.98;1.50;;;;;;;;;;5323773;28;20265;-71
2022/07/03 05:10:29;;;;;;;2.72;1.77;;;;;;;;;;5323277;28;20027;-71
2022/07/03 05:13:00;;;;;;;3.60;1.52;;;;;;;;;;5322662;28;20106;-71
2022/07/03 05:15:32;;;;;;;3.30;1.57;;;;;;;;;;5323022;28;20474;-71
2022/07/03 05:18:03;;;;;;;3.97;1.60;;;;;;;;;;5323261;28;20277;-71
2022/07/03 05:20:34;;;;;;;5.45;2.17;;;;;;;;;;5322211;28;20393;-71
2022/07/03 05:23:05;;;;;;;4.23;1.53;;;;;;;;;;5322864;28;20019;-71
2022/07/03 05:25:36;;;;;;;8.70;2.30;;;;;;;;;;5321926;28;20297;-71
2022/07/03 05:28:07;;;;;;;3.10;1.67;;;;;;;;;;5322713;28;20312;-71
2022/07/03 05:30:39;;;;;;;5.80;1.90;;;;;;;;;;5322925;28;20338;-71
2022/07/03 05:33:10;;;;;;;2.80;1.52;;;;;;;;;;5322597;28;20265;-71
2022/07/03 05:35:41;;;;;;;3.58;1.80;;;;;;;;;;5326592;28;20467;-71
2022/07/03 05:38:13;;;;;;;4.70;2.00;;;;;;;;;;5326503;28;20744;-71
2022/07/03 05:40:44;;;;;;;3.63;1.38;;;;;;;;;;5325736;28;20303;-71
2022/07/03 05:43:15;;;;;;;6.90;1.63;;;;;;;;;;5326632;28;20035;-71
2022/07/03 05:45:46;;;;;;;5.07;2.03;;;;;;;;;;5326438;28;20300;-70
2022/07/03 05:48:17;;;;;;;5.10;1.57;;;;;;;;;;5325624;28;20687;-71
2022/07/03 05:50:49;;;;;;;5.50;1.30;;;;;;;;;;5326219;28;20296;-71
2022/07/03 05:53:20;;;;;;;5.67;1.50;;;;;;;;;;5325840;28;20318;-71
2022/07/03 05:55:51;;;;;;;4.72;1.40;;;;;;;;;;5325743;28;20285;-71
2022/07/03 05:58:22;;;;;;;6.22;1.42;;;;;;;;;;5325855;28;20015;-72
2022/07/03 06:00:53;;;;;;;5.07;1.88;;;;;;;;;;5325641;28;20043;-71
2022/07/03 06:03:24;;;;;;;3.67;1.52;;;;;;;;;;5325492;28;20261;-71
2022/07/03 06:05:56;;;;;;;3.95;1.13;;;;;;;;;;5326492;28;20022;-71
2022/07/03 06:08:27;;;;;;;7.22;1.73;;;;;;;;;;5324619;28;20253;-71
2022/07/03 06:10:58;;;;;;;7.20;1.67;;;;;;;;;;5326177;28;20494;-72
2022/07/03 06:13:29;;;;;;;4.40;1.58;;;;;;;;;;5325265;28;20289;-70
2022/07/03 06:16:00;;;;;;;4.55;1.50;;;;;;;;;;5324781;28;20031;-71
2022/07/03 06:18:31;;;;;;;4.93;1.73;;;;;;;;;;5325451;28;20327;-71
2022/07/03 06:21:03;;;;;;;6.53;2.42;;;;;;;;;;5325576;28;20089;-72
2022/07/03 06:23:34;;;;;;;6.72;1.80;;;;;;;;;;5324684;28;20280;-71
2022/07/03 06:26:05;;;;;;;5.80;1.77;;;;;;;;;;5325267;28;20053;-71
2022/07/03 06:28:36;;;;;;;5.20;1.40;;;;;;;;;;5325403;28;20269;-71
2022/07/03 06:31:08;;;;;;;5.57;1.35;;;;;;;;;;5324751;28;20012;-71
2022/07/03 06:33:39;;;;;;;5.45;1.30;;;;;;;;;;5325215;28;20035;-71
2022/07/03 06:36:10;;;;;;;4.32;1.48;;;;;;;;;;5324385;28;20011;-72
2022/07/03 06:38:41;;;;;;;5.00;1.43;;;;;;;;;;5325265;28;20449;-71
2022/07/03 06:41:12;;;;;;;5.43;1.40;;;;;;;;;;5325194;28;20277;-71
2022/07/03 06:43:43;;;;;;;7.87;1.67;;;;;;;;;;5324198;28;20269;-71
2022/07/03 06:46:15;;;;;;;5.05;1.25;;;;;;;;;;5324998;28;20281;-71
2022/07/03 06:48:46;;;;;;;4.88;1.50;;;;;;;;;;5324931;28;20023;-71
2022/07/03 06:51:17;;;;;;;9.07;1.88;;;;;;;;;;5324095;28;20007;-71
2022/07/03 06:53:49;;;;;;;5.53;1.10;;;;;;;;;;5324978;28;20035;-71
2022/07/03 06:56:20;;;;;;;6.93;1.58;;;;;;;;;;5324500;28;20751;-73
2022/07/03 06:58:51;;;;;;;5.83;1.57;;;;;;;;;;5324419;28;20019;-71
2022/07/03 07:01:22;;;;;;;4.80;1.17;;;;;;;;;;5324295;28;20265;-70
2022/07/03 07:03:53;;;;;;;5.47;1.53;;;;;;;;;;5324626;28;20274;-71
2022/07/03 07:06:24;;;;;;;4.72;1.27;;;;;;;;;;5323949;28;20604;-71
2022/07/03 07:08:56;;;;;;;5.05;1.17;;;;;;;;;;5324984;28;20027;-71
2022/07/03 07:11:27;;;;;;;4.90;1.50;;;;;;;;;;5323253;28;20310;-70
2022/07/03 07:13:58;;;;;;;5.10;1.17;;;;;;;;;;5324576;28;20309;-72
2022/07/03 07:16:29;;;;;;;3.53;1.25;;;;;;;;;;5324046;28;20428;-72
2022/07/03 07:19:00;;;;;;;7.47;1.40;;;;;;;;;;5323662;28;20288;-72
2022/07/03 07:21:31;;;;;;;5.77;1.37;;;;;;;;;;5324287;28;20020;-72
2022/07/03 07:24:03;;;;;;;4.53;1.33;;;;;;;;;;5324110;28;20261;-72
2022/07/03 07:26:34;;;;;;;6.13;1.58;;;;;;;;;;5323300;28;20700;-72
2022/07/03 07:29:05;;;;;;;3.93;1.07;;;;;;;;;;5323993;28;20103;-72
2022/07/03 07:31:36;;;;;;;4.17;0.90;;;;;;;;;;5324268;28;20265;-72
2022/07/03 07:34:07;;;;;;;4.90;1.00;;;;;;;;;;5323320;28;20293;-72
2022/07/03 07:36:39;;;;;;;7.20;1.37;;;;;;;;;;5324088;28;20360;-72
2022/07/03 07:39:10;;;;;;;4.18;0.90;;;;;;;;;;5323535;28;20269;-72
2022/07/03 07:41:41;;;;;;;4.20;0.90;;;;;;;;;;5323381;28;20379;-72
2022/07/03 07:44:12;;;;;;;3.73;0.83;;;;;;;;;;5324175;28;20323;-73
2022/07/03 07:46:43;;;;;;;3.87;1.20;;;;;;;;;;5323277;28;20266;-73
2022/07/03 07:49:14;;;;;;;5.75;1.17;;;;;;;;;;5323804;28;20273;-72
2022/07/03 07:51:45;;;;;;;3.03;1.00;;;;;;;;;;5323627;28;20023;-72
2022/07/03 07:54:17;;;;;;;4.50;1.20;;;;;;;;;;5323018;28;20304;-72
2022/07/03 07:56:48;;;;;;;3.30;1.00;;;;;;;;;;5322905;28;20344;-72
2022/07/03 07:59:19;;;;;;;4.40;1.50;;;;;;;;;;5323555;28;20780;-73
2022/07/03 08:07:30;;;;;;;5.03;1.17;;;;;;;;;;5322755;28;20036;-72
2022/07/03 08:10:02;;;;;;;5.00;1.27;;;;;;;;;;5323425;28;20015;-72
2022/07/03 08:12:34;;;;;;;4.20;1.13;;;;;;;;;;5323185;28;20269;-72
2022/07/03 08:15:05;;;;;;;4.57;1.42;;;;;;;;;;5322848;28;20107;-72
2022/07/03 08:17:36;;;;;;;3.45;1.20;;;;;;;;;;5323601;28;20102;-72
2022/07/03 08:20:08;;;;;;;2.90;1.20;;;;;;;;;;5323077;28;20227;-72
2022/07/03 08:22:39;;;;;;;3.78;1.20;;;;;;;;;;5322391;28;20265;-72
2022/07/03 08:25:11;;;;;;;4.40;1.20;;;;;;;;;;5323225;28;20018;-72
2022/07/03 08:27:42;;;;;;;3.07;1.37;;;;;;;;;;5323583;28;20029;-72
2022/07/03 08:30:16;;;;;;;6.65;1.73;;;;;;;;;;5317245;28;20330;-71
2022/07/03 08:32:48;;;;;;;6.32;2.30;;;;;;;;;;5322758;28;20262;-71
2022/07/03 08:35:19;;;;;;;5.18;1.45;;;;;;;;;;5322447;28;20266;-74
2022/07/03 08:37:50;;;;;;;5.15;1.55;;;;;;;;;;5323309;28;20430;-74
2022/07/03 08:40:22;;;;;;;6.15;1.70;;;;;;;;;;5322827;28;20038;-76
2022/07/03 08:42:54;;;;;;;5.38;0.85;;;;;;;;;;5322843;28;20016;-75
2022/07/03 08:45:25;;;;;;;2.67;0.70;;;;;;;;;;5322482;28;20026;-76
2022/07/03 08:47:57;;;;;;;4.53;0.60;;;;;;;;;;5323490;28;20024;-71
2022/07/03 08:50:29;;;;;;;5.20;0.80;;;;;;;;;;5322269;28;20022;-74
2022/07/03 08:53:03;;;;;;;3.40;0.50;;;;;;;;;;5323044;28;20106;-74
2022/07/03 08:55:34;;;;;;;2.53;0.70;;;;;;;;;;5323371;28;20028;-74
2022/07/03 08:58:09;;;;;;;2.70;0.70;;;;;;;;;;5322581;28;20023;-74
2022/07/03 09:00:41;;;;;;;2.10;0.50;;;;;;;;;;5323142;28;20031;-75
2022/07/03 09:03:13;;;;;;;2.60;0.60;;;;;;;;;;5323422;28;20534;-73
2022/07/03 09:05:44;;;;;;;3.35;0.60;;;;;;;;;;5322940;28;20024;-72
2022/07/03 09:08:17;;;;;;;3.00;0.70;;;;;;;;;;5324365;28;20023;-71
2022/07/03 09:10:48;;;;;;;2.00;0.57;;;;;;;;;;5326717;28;20355;-73
2022/07/03 09:13:19;;;;;;;5.73;0.60;;;;;;;;;;5326886;28;20015;-72
2022/07/03 09:15:50;;;;;;;2.35;0.55;;;;;;;;;;5327777;28;20599;-73
2022/07/03 09:18:38;;;;;;;2.20;0.50;;;;;;;;;;5326003;28;20015;-73
2022/07/03 09:21:09;;;;;;;2.67;0.70;;;;;;;;;;5327224;28;20024;-74
2022/07/03 09:23:41;;;;;;;2.97;0.70;;;;;;;;;;5327410;28;20026;-73
2022/07/03 09:26:14;;;;;;;1.83;0.50;;;;;;;;;;5326180;28;20019;-71
2022/07/03 09:28:51;;;;;;;1.67;0.38;;;;;;;;;;5327227;28;20382;-71
2022/07/03 09:31:24;;;;;;;3.38;0.50;;;;;;;;;;5326359;28;20113;-71
2022/07/03 09:33:55;;;;;;;1.45;0.50;;;;;;;;;;5326371;27;20039;-71
2022/07/03 09:36:40;;;;;;;2.63;0.65;;;;;;;;;;5326535;28;20023;-71
2022/07/03 09:39:11;;;;;;;3.15;0.90;;;;;;;;;;5325970;28;20063;-71
2022/07/03 09:41:51;;;;;;;3.42;0.80;;;;;;;;;;5326762;28;20047;-71
2022/07/03 09:44:33;;;;;;;3.03;0.63;;;;;;;;;;5326253;28;20110;-71
2022/07/03 09:47:07;;;;;;;3.90;0.60;;;;;;;;;;5325844;28;20054;-71
2022/07/03 09:49:45;;;;;;;3.42;0.80;;;;;;;;;;5326804;28;20386;-71
2022/07/03 09:52:35;;;;;;;2.37;0.60;;;;;;;;;;5326230;28;20051;-71
2022/07/03 09:55:08;;;;;;;2.22;0.50;;;;;;;;;;5325683;28;20039;-71
2022/07/03 09:57:41;;;;;;;2.22;0.50;;;;;;;;;;5326354;28;20031;-71
2022/07/03 10:00:12;;;;;;;2.35;0.50;;;;;;;;;;5325559;28;20060;-71
2022/07/03 10:03:03;;;;;;;2.28;0.40;;;;;;;;;;5326105;28;20030;-70
2022/07/03 10:05:35;;;;;;;2.85;0.35;;;;;;;;;;5326260;28;20019;-71
2022/07/03 10:08:09;;;;;;;2.97;0.40;;;;;;;;;;5325355;27;20016;-71
2022/07/03 10:10:44;;;;;;;1.58;0.35;;;;;;;;;;5326165;28;20061;-71
2022/07/03 10:13:16;;;;;;;3.15;0.45;;;;;;;;;;5325808;28;20023;-71
2022/07/03 10:15:47;;;;;;;1.85;0.40;;;;;;;;;;5325656;28;20461;-71
2022/07/03 10:18:19;;;;;;;1.93;0.40;;;;;;;;;;5325693;28;20047;-71
2022/07/03 10:20:50;;;;;;;1.63;0.40;;;;;;;;;;5325719;28;20415;-71
2022/07/03 10:23:21;;;;;;;2.17;0.50;;;;;;;;;;5325200;28;20034;-71
2022/07/03 10:25:53;;;;;;;3.05;0.60;;;;;;;;;;5326038;28;20048;-71
2022/07/03 10:28:24;;;;;;;2.75;0.50;;;;;;;;;;5324910;27;20012;-71
2022/07/03 10:30:56;;;;;;;2.45;0.50;;;;;;;;;;5326084;28;20019;-72
2022/07/03 10:33:28;;;;;;;2.58;0.52;;;;;;;;;;5325507;28;20359;-72
2022/07/03 10:35:59;;;;;;;2.33;0.50;;;;;;;;;;5325044;28;20050;-71
2022/07/03 10:38:39;;;;;;;2.30;0.50;;;;;;;;;;5325521;28;20030;-71
2022/07/03 10:47:31;;;;;;;1.92;0.32;;;;;;;;;;5325703;28;20021;-71
2022/07/03 10:50:06;;;;;;;1.10;0.30;;;;;;;;;;5324649;28;20051;-72
2022/07/03 10:52:38;;;;;;;1.42;0.40;;;;;;;;;;5324806;28;20027;-71
2022/07/03 10:55:09;;;;;;;1.73;0.40;;;;;;;;;;5324383;27;20035;-72
2022/07/03 10:57:41;;;;;;;2.83;0.40;;;;;;;;;;5324666;28;20012;-70
2022/07/03 11:00:14;;;;;;;3.92;0.50;;;;;;;;;;5325226;28;20047;-71
2022/07/03 11:02:46;;;;;;;3.33;0.50;;;;;;;;;;5324899;27;20072;-73
2022/07/03 11:05:24;;;;;;;2.25;0.60;;;;;;;;;;5324878;28;20454;-71
2022/07/03 11:07:55;;;;;;;3.33;0.55;;;;;;;;;;5325293;28;20382;-71
2022/07/03 11:10:28;;;;;;;2.42;0.95;;;;;;;;;;5323695;28;20015;-71
2022/07/03 11:13:03;;;;;;;2.05;0.40;;;;;;;;;;5324635;28;20114;-72
2022/07/03 11:15:39;;;;;;;2.28;0.40;;;;;;;;;;5324569;28;20068;-70
2022/07/03 11:18:18;;;;;;;2.38;0.55;;;;;;;;;;5323914;28;20038;-71
2022/07/03 11:20:49;;;;;;;2.33;1.05;;;;;;;;;;5325197;28;20031;-70
2022/07/03 11:23:26;;;;;;;2.72;0.43;;;;;;;;;;5324168;28;20124;-72
2022/07/03 11:26:01;;;;;;;2.58;0.60;;;;;;;;;;5324424;28;20072;-72
2022/07/03 11:28:34;;;;;;;2.20;0.65;;;;;;;;;;5324226;28;20146;-72
2022/07/03 11:31:13;;;;;;;2.78;0.40;;;;;;;;;;5323443;28;20530;-72
2022/07/03 11:33:44;;;;;;;2.70;0.50;;;;;;;;;;5323965;28;20036;-72
2022/07/03 11:36:15;;;;;;;2.57;0.50;;;;;;;;;;5324508;28;20419;-71
2022/07/03 11:38:48;;;;;;;2.40;0.60;;;;;;;;;;5323373;28;20035;-70
2022/07/03 11:41:19;;;;;;;3.42;0.82;;;;;;;;;;5324126;28;20454;-68
2022/07/03 11:43:57;;;;;;;2.60;0.87;;;;;;;;;;5321329;28;20016;-70
2022/07/03 11:46:29;;;;;;;3.45;0.57;;;;;;;;;;5322881;28;20360;-70
2022/07/03 11:49:06;;;;;;;4.35;0.75;;;;;;;;;;5323774;28;20023;-71
2022/07/03 11:51:39;;;;;;;2.67;0.60;;;;;;;;;;5323906;28;20138;-72
2022/07/03 11:54:10;;;;;;;3.38;0.60;;;;;;;;;;5323576;28;20106;-70
2022/07/03 11:56:41;;;;;;;2.70;0.50;;;;;;;;;;5323608;28;20115;-70
2022/07/03 11:59:13;;;;;;;1.52;0.50;;;;;;;;;;5323233;28;20268;-70
2022/07/03 12:01:44;;;;;;;3.53;0.40;;;;;;;;;;5323424;28;20016;-70
2022/07/03 12:04:22;;;;;;;1.20;0.40;;;;;;;;;;5323848;28;20055;-70
2022/07/03 12:06:56;;;;;;;4.22;0.30;;;;;;;;;;5323088;28;20377;-70
2022/07/03 12:09:34;;;;;;;3.25;0.30;;;;;;;;;;5323153;28;20069;-71
2022/07/03 12:12:07;;;;;;;1.73;0.20;;;;;;;;;;5323715;28;20367;-70
2022/07/03 12:14:45;;;;;;;5.30;0.38;;;;;;;;;;5322831;28;20609;-70
2022/07/03 12:17:23;;;;;;;1.75;0.30;;;;;;;;;;5323238;28;20023;-70
2022/07/03 12:19:55;;;;;;;1.17;0.20;;;;;;;;;;5323611;28;20547;-69
2022/07/03 12:22:27;;;;;;;2.42;0.20;;;;;;;;;;5322869;28;20108;-69
2022/07/03 12:25:05;;;;;;;1.13;0.20;;;;;;;;;;5324236;28;20051;-69
2022/07/03 12:27:42;;;;;;;1.52;0.20;;;;;;;;;;5323074;28;20291;-69
2022/07/03 12:30:18;;;;;;;2.15;0.20;;;;;;;;;;5323108;28;20403;-68
2022/07/03 12:32:49;;;;;;;2.75;0.20;;;;;;;;;;5323488;28;20044;-70
2022/07/03 12:35:21;;;;;;;2.45;0.10;;;;;;;;;;5321735;28;20099;-70
2022/07/03 12:37:52;;;;;;;2.40;0.20;;;;;;;;;;5314131;28;20347;-70
2022/07/03 12:40:24;;;;;;;2.58;0.10;;;;;;;;;;5323166;28;20015;-71
2022/07/03 12:42:55;;;;;;;1.40;0.20;;;;;;;;;;5324563;28;20015;-71
2022/07/03 12:45:27;;;;;;;0.93;0.20;;;;;;;;;;5327360;28;20037;-68
2022/07/03 12:48:02;;;;;;;2.85;0.10;;;;;;;;;;5327749;28;20344;-67
2022/07/03 12:50:47;;;;;;;1.02;0.20;;;;;;;;;;5326956;28;20020;-67
2022/07/03 12:53:28;;;;;;;0.75;0.10;;;;;;;;;;5327528;28;20103;-68
2022/07/03 12:56:00;;;;;;;2.13;0.20;;;;;;;;;;5326184;28;20089;-68
2022/07/03 13:01:38;;;;;;;3.92;0.20;;;;;;;;;;5327262;28;20471;-67
2022/07/03 13:04:17;;;;;;;1.40;0.20;;;;;;;;;;5326950;28;20024;-69
2022/07/03 13:06:58;;;;;;;1.67;0.10;;;;;;;;;;5327459;28;20076;-68
2022/07/03 13:09:29;;;;;;;0.45;0.03;;;;;;;;;;5326703;28;20064;-68
2022/07/03 13:12:01;;;;;;;0.50;0.10;;;;;;;;;;5326505;28;20015;-68
2022/07/03 13:14:32;;;;;;;1.23;0.10;;;;;;;;;;5326850;28;20293;-69
2022/07/03 13:17:03;;;;;;;1.42;0.20;;;;;;;;;;5326147;28;20479;-68
2022/07/03 13:19:34;;;;;;;1.73;0.35;;;;;;;;;;5326777;28;20402;-68
2022/07/03 13:22:05;;;;;;;2.27;0.10;;;;;;;;;;5326654;28;20031;-70
2022/07/03 13:24:37;;;;;;;0.97;0.10;;;;;;;;;;5325831;28;20670;-68
2022/07/03 13:27:08;;;;;;;0.63;0.10;;;;;;;;;;5326534;28;20016;-68
2022/07/03 13:29:39;;;;;;;3.20;0.10;;;;;;;;;;5326583;28;20164;-68
2022/07/03 13:32:11;;;;;;;3.90;0.10;;;;;;;;;;5326097;28;20095;-68
2022/07/03 13:34:42;;;;;;;1.50;0.10;;;;;;;;;;5326388;28;20043;-69
2022/07/03 13:37:13;;;;;;;2.90;0.10;;;;;;;;;;5326297;28;20012;-69
2022/07/03 13:39:44;;;;;;;2.80;0.10;;;;;;;;;;5326122;28;20063;-69
2022/07/03 13:42:17;;;;;;;0.43;0.10;;;;;;;;;;5320972;28;20054;-68
2022/07/03 13:44:49;;;;;;;2.13;0.10;;;;;;;;;;5312253;28;20479;-70
2022/07/03 13:47:21;;;;;;;2.15;0.40;;;;;;;;;;5302764;28;20027;-69
2022/07/03 13:49:52;;;;;;;2.90;0.27;;;;;;;;;;5303289;28;20012;-69
2022/07/03 13:52:23;;;;;;;1.17;0.20;;;;;;;;;;5303296;28;20267;-70
2022/07/03 13:54:54;;;;;;;3.30;0.40;;;;;;;;;;5324843;28;20020;-69
2022/07/03 13:57:26;;;;;;;2.27;0.50;;;;;;;;;;5325542;28;20019;-68
2022/07/03 13:59:57;;;;;;;3.73;0.50;;;;;;;;;;5325369;28;20326;-68
2022/07/03 14:02:28;;;;;;;2.57;0.30;;;;;;;;;;5324957;28;20107;-69
2022/07/03 14:04:59;;;;;;;1.70;0.30;;;;;;;;;;5323823;28;20714;-69
2022/07/03 14:07:31;;;;;;;2.85;0.30;;;;;;;;;;5323951;28;20094;-68
2022/07/03 14:10:02;;;;;;;4.88;0.35;;;;;;;;;;5325482;28;20020;-69
2022/07/03 14:12:33;;;;;;;4.00;0.77;;;;;;;;;;5325468;28;20016;-68
2022/07/03 14:15:05;;;;;;;2.03;0.30;;;;;;;;;;5324919;28;20033;-68
2022/07/03 14:17:36;;;;;;;1.77;0.30;;;;;;;;;;5325633;28;20268;-68
2022/07/03 14:20:08;;;;;;;2.08;0.30;;;;;;;;;;5324506;28;20126;-70
2022/07/03 14:22:39;;;;;;;4.47;0.35;;;;;;;;;;5325722;28;20030;-68
2022/07/03 14:25:10;;;;;;;3.67;0.37;;;;;;;;;;5325532;28;20016;-70
2022/07/03 14:33:21;;;;;;;2.92;0.30;;;;;;;;;;5325075;28;20390;-68
2022/07/03 14:35:52;;;;;;;1.88;0.20;;;;;;;;;;5324862;28;20028;-68
2022/07/03 14:38:23;;;;;;;2.72;0.40;;;;;;;;;;5325561;28;20024;-69
2022/07/03 14:40:55;;;;;;;2.03;0.30;;;;;;;;;;5325683;28;20019;-69
2022/07/03 14:43:27;;;;;;;1.10;0.20;;;;;;;;;;5324881;27;20258;-68
2022/07/03 14:45:58;;;;;;;2.20;0.30;;;;;;;;;;5325874;28;20045;-69
2022/07/03 14:48:29;;;;;;;3.17;0.27;;;;;;;;;;5324266;28;20355;-68
2022/07/03 14:51:00;;;;;;;1.63;0.20;;;;;;;;;;5325575;28;20119;-69
2022/07/03 14:53:31;;;;;;;3.20;0.30;;;;;;;;;;5325560;28;20027;-68
2022/07/03 14:56:03;;;;;;;5.30;0.30;;;;;;;;;;5324632;28;20019;-69
2022/07/03 14:58:37;;;;;;;1.25;0.20;;;;;;;;;;5325479;28;20654;-68
2022/07/03 15:01:08;;;;;;;1.92;0.20;;;;;;;;;;5324921;28;20012;-69
2022/07/03 15:03:46;;;;;;;2.15;0.20;;;;;;;;;;5324636;28;20481;-68
2022/07/03 15:06:17;;;;;;;2.53;0.30;;;;;;;;;;5325314;28;20324;-67
2022/07/03 15:08:57;;;;;;;3.45;0.30;;;;;;;;;;5324967;28;20030;-69
2022/07/03 15:14:30;;;;;;;1.02;0.30;;;;;;;;;;5324784;28;20035;-69
2022/07/03 15:17:01;;;;;;;3.03;0.20;;;;;;;;;;5324265;28;20086;-69
2022/07/03 15:19:34;;;;;;;2.67;0.20;;;;;;;;;;5324548;28;20044;-69
2022/07/03 15:22:07;;;;;;;1.60;0.20;;;;;;;;;;5324544;28;20049;-69
2022/07/03 15:24:38;;;;;;;2.42;0.40;;;;;;;;;;5324511;28;20467;-69
2022/07/03 15:27:09;;;;;;;1.60;0.20;;;;;;;;;;5324846;28;20019;-69
2022/07/03 15:29:42;;;;;;;1.20;0.10;;;;;;;;;;5324436;28;20028;-69
2022/07/03 15:32:13;;;;;;;1.58;0.20;;;;;;;;;;5323634;28;20452;-68
2022/07/03 15:34:45;;;;;;;4.82;0.22;;;;;;;;;;5324018;28;20049;-67
2022/07/03 15:37:28;;;;;;;1.45;0.10;;;;;;;;;;5323973;28;20047;-68
2022/07/03 15:40:02;;;;;;;1.92;0.20;;;;;;;;;;5324265;28;20053;-69
2022/07/03 15:42:33;;;;;;;1.25;0.20;;;;;;;;;;5323842;28;20060;-68